Rothschild, Wisconsin
Current Conditions -  °F | °C
As of 4:43 AM on Thursday 23 Oct 2014 (Local Time) from KAUW Reporting Station
Overcast Overcast  
Wind Chill: 43°   Ceiling: 2900
Heat Index: 43°   Visibility: 10mi
Dew Point: 37°   Wind: 3mph
Humidity: 80%   Direction: 150°SSE
Pressure: 30.12"   Gusts: NA
Location:  44.89°N, 89.62°W
Report Text: KAUW 230943Z AUTO 15003KT 10SM BKN029 OVC043 06/03 A3012 RMK AO2 T00610028
Loading
Personal Weather Stations






























Interactive Weather Map New forecast layout! Learn more

10-Day Weather Forecast

Advertisements
Track Severe Weather on mobile